Time;durP1;ratioP1;P1;durP2;ratioP2;P2;SDS_P1;SDS_P2;PMS_P1;PMS_P2;Temp;Humidity;BMP_temperature;BMP_pressure;BME280_temperature;BME280_humidity;BME280_pressure;Samples;Min_cycle;Max_cycle;Signal;HPM_P1;HPM_P2
2023/08/08 00:00:41;;;;;;;1.10;0.57;;;;;;;15.45;45.69;94544.06;5037686;28;20461;-85
2023/08/08 00:03:08;;;;;;;1.15;0.70;;;;;;;15.43;46.43;94549.66;5053242;28;20128;-86
2023/08/08 00:05:34;;;;;;;1.15;0.63;;;;;;;15.29;47.29;94551.50;5038167;28;20033;-84
2023/08/08 00:07:59;;;;;;;2.20;0.80;;;;;;;15.19;46.68;94549.81;5038012;28;20037;-86
2023/08/08 00:10:24;;;;;;;4.53;0.75;;;;;;;14.83;46.63;94551.22;5036029;28;20033;-86
2023/08/08 00:15:34;;;;;;;1.25;0.73;;;;;;;14.49;47.66;94542.50;5036625;28;20059;-86
2023/08/08 00:17:59;;;;;;;3.70;0.75;;;;;;;14.48;49.06;94537.50;5037684;28;20029;-86
2023/08/08 00:20:24;;;;;;;2.20;0.80;;;;;;;14.39;47.61;94542.66;5035809;28;20037;-85
2023/08/08 00:22:50;;;;;;;1.17;0.68;;;;;;;14.61;48.63;94538.59;5019770;28;20021;-86
2023/08/08 00:25:15;;;;;;;0.88;0.52;;;;;;;14.68;47.54;94539.81;5052992;28;20355;-85
2023/08/08 00:27:43;;;;;;;1.35;0.68;;;;;;;14.54;47.53;94538.97;5036492;28;20047;-86
2023/08/08 00:30:15;;;;;;;1.02;0.50;;;;;;;14.68;47.39;94544.31;5044459;28;20044;-87
2023/08/08 00:32:40;;;;;;;2.47;0.60;;;;;;;14.63;47.02;94545.16;5039169;28;20068;-86
2023/08/08 00:35:06;;;;;;;3.88;0.82;;;;;;;14.86;45.98;94545.38;5049004;28;20029;-87
2023/08/08 00:37:36;;;;;;;0.73;0.50;;;;;;;14.75;45.97;94544.75;5076737;28;20035;-86
2023/08/08 00:40:01;;;;;;;1.10;0.60;;;;;;;14.80;47.13;94542.03;5067337;28;20064;-87
2023/08/08 00:42:27;;;;;;;0.95;0.50;;;;;;;14.82;45.63;94544.38;5054444;28;20114;-86
2023/08/08 00:44:52;;;;;;;1.40;0.73;;;;;;;14.54;47.43;94536.34;5060967;28;20032;-87
2023/08/08 00:50:03;;;;;;;2.45;0.75;;;;;;;14.75;46.80;94525.50;5055699;28;20390;-86
2023/08/08 00:52:28;;;;;;;0.73;0.50;;;;;;;14.80;45.79;94536.75;5037394;28;20124;-86
2023/08/08 00:54:54;;;;;;;1.50;0.65;;;;;;;14.79;48.23;94545.75;5036914;28;20064;-86
2023/08/08 00:57:19;;;;;;;0.95;0.60;;;;;;;14.79;47.62;94537.03;5037341;28;20343;-85
2023/08/08 01:00:04;;;;;;;0.70;0.50;;;;;;;14.77;48.13;94552.38;5046877;28;20040;-86
2023/08/08 01:02:29;;;;;;;0.80;0.50;;;;;;;14.77;47.51;94545.22;5037048;28;20091;-86
2023/08/08 01:05:13;;;;;;;3.65;0.73;;;;;;;14.56;47.95;94544.75;5019161;28;20439;-85
2023/08/08 01:08:01;;;;;;;1.60;0.63;;;;;;;14.23;48.38;94544.72;5051961;28;20025;-86
2023/08/08 01:10:46;;;;;;;0.77;0.55;;;;;;;14.55;48.63;94551.88;5036574;28;20076;-86
2023/08/08 01:13:21;;;;;;;2.20;0.80;;;;;;;14.47;48.40;94543.84;5051843;28;20030;-85
2023/08/08 01:16:06;;;;;;;1.08;0.60;;;;;;;14.64;48.80;94548.59;5035234;28;20033;-85
2023/08/08 01:18:32;;;;;;;1.20;0.60;;;;;;;14.35;48.67;94544.28;5036313;28;20032;-86
2023/08/08 01:24:05;;;;;;;2.08;0.80;;;;;;;14.79;44.54;94543.09;5035493;28;20457;-85
2023/08/08 01:26:31;;;;;;;3.35;0.80;;;;;;;14.72;45.44;94547.19;5036441;28;20071;-85
2023/08/08 01:28:56;;;;;;;1.23;0.60;;;;;;;14.90;44.83;94549.00;5034499;28;20064;-86
2023/08/08 01:31:22;;;;;;;2.35;0.55;;;;;;;14.90;44.88;94556.09;5036109;28;20454;-85
2023/08/08 01:33:47;;;;;;;1.27;0.70;;;;;;;14.92;44.91;94546.03;5034910;28;20030;-87
2023/08/08 01:36:30;;;;;;;1.15;0.60;;;;;;;14.83;44.63;94540.66;5035102;28;20077;-85
2023/08/08 01:39:03;;;;;;;2.07;0.70;;;;;;;14.86;44.84;94544.56;5034700;28;20036;-85
2023/08/08 01:41:30;;;;;;;2.05;0.70;;;;;;;14.67;45.41;94548.78;5035102;28;20064;-86
2023/08/08 01:43:55;;;;;;;1.60;0.77;;;;;;;14.31;50.13;94541.44;5035238;28;20343;-86
2023/08/08 01:49:24;;;;;;;1.48;0.60;;;;;;;14.21;48.66;94541.59;5035428;28;20036;-85
2023/08/08 01:51:50;;;;;;;1.77;0.70;;;;;;;14.20;49.11;94534.75;5034480;28;20355;-86
2023/08/08 01:54:16;;;;;;;0.90;0.52;;;;;;;14.26;49.16;94539.66;5034597;28;20036;-86
2023/08/08 01:57:00;;;;;;;1.50;0.80;;;;;;;13.99;49.01;94527.91;5034824;28;20108;-85
2023/08/08 02:02:10;;;;;;;2.05;0.70;;;;;;;14.05;49.04;94536.53;5048642;28;20109;-85
2023/08/08 02:04:35;;;;;;;1.40;0.70;;;;;;;13.84;48.22;94534.19;5034657;28;20116;-85
2023/08/08 02:07:00;;;;;;;2.15;0.80;;;;;;;13.67;51.99;94539.91;5035741;28;20036;-85
2023/08/08 02:12:10;;;;;;;2.35;0.90;;;;;;;13.37;50.19;94535.75;5034621;28;20046;-85
2023/08/08 02:14:54;;;;;;;2.35;0.70;;;;;;;13.51;50.39;94538.53;5035300;28;20029;-85
2023/08/08 02:17:25;;;;;;;1.40;0.80;;;;;;;13.50;49.35;94534.34;5035654;28;20067;-85
2023/08/08 02:19:51;;;;;;;1.58;0.80;;;;;;;13.49;49.06;94538.03;5033906;28;20060;-85
2023/08/08 02:25:00;;;;;;;1.77;0.63;;;;;;;13.68;49.20;94530.94;5035205;28;20083;-85
2023/08/08 02:30:11;;;;;;;1.10;0.70;;;;;;;13.66;50.13;94535.72;5033794;28;20044;-85
2023/08/08 02:32:36;;;;;;;4.25;0.90;;;;;;;13.69;49.44;94532.50;5035348;28;20443;-85
2023/08/08 02:35:01;;;;;;;1.00;0.60;;;;;;;13.74;49.95;94528.25;5034137;28;20128;-85
2023/08/08 02:38:04;;;;;;;1.48;0.80;;;;;;;13.74;50.02;94525.59;5017712;28;20021;-85
2023/08/08 02:40:33;;;;;;;1.25;0.60;;;;;;;13.49;48.46;94532.78;5035036;28;20036;-85
2023/08/08 02:42:59;;;;;;;1.13;0.75;;;;;;;13.41;48.39;94534.91;5048466;28;20028;-85
2023/08/08 02:45:43;;;;;;;1.60;0.80;;;;;;;13.49;48.74;94545.94;5037621;28;20036;-85
2023/08/08 02:48:08;;;;;;;1.75;0.70;;;;;;;13.60;49.80;94544.72;5054044;28;20037;-85
2023/08/08 02:50:34;;;;;;;1.23;0.82;;;;;;;13.58;49.04;94541.59;5053271;28;20063;-85
2023/08/08 02:52:59;;;;;;;0.75;0.63;;;;;;;13.52;49.35;94546.13;5053808;28;20032;-85
2023/08/08 02:55:43;;;;;;;2.75;0.70;;;;;;;13.61;49.34;94546.28;5053462;28;20446;-85
2023/08/08 02:58:09;;;;;;;1.60;0.60;;;;;;;13.76;50.72;94553.22;5037026;28;20120;-85
2023/08/08 03:00:53;;;;;;;1.30;0.70;;;;;;;13.50;47.67;94553.53;5053732;28;20203;-85
2023/08/08 03:03:37;;;;;;;0.77;0.55;;;;;;;13.23;61.32;94561.97;5054759;28;20036;-85
2023/08/08 03:06:22;;;;;;;1.13;0.60;;;;;;;13.11;53.24;94552.59;5055205;28;20044;-85
2023/08/08 03:08:47;;;;;;;0.82;0.52;;;;;;;13.14;51.11;94556.53;5054643;28;20331;-85
2023/08/08 03:11:12;;;;;;;2.25;0.77;;;;;;;13.27;50.80;94547.19;5055128;28;20040;-85
2023/08/08 03:13:38;;;;;;;1.63;0.75;;;;;;;13.33;51.10;94550.53;5053307;28;20032;-85
2023/08/08 03:16:04;;;;;;;1.20;0.70;;;;;;;13.42;51.99;94548.88;5053680;28;20127;-85
2023/08/08 03:18:29;;;;;;;2.47;0.70;;;;;;;13.21;50.96;94556.97;5053699;28;20033;-85
2023/08/08 03:21:13;;;;;;;1.70;0.70;;;;;;;13.20;52.47;94559.88;5053290;28;20065;-85
2023/08/08 03:23:57;;;;;;;2.17;0.63;;;;;;;13.31;49.98;94553.44;5055359;28;20328;-86
2023/08/08 03:26:23;;;;;;;1.58;0.77;;;;;;;13.37;49.68;94552.34;5040478;28;20028;-85
2023/08/08 03:28:50;;;;;;;1.05;0.80;;;;;;;13.39;49.77;94554.66;5057078;28;20328;-85
2023/08/08 03:31:17;;;;;;;1.30;0.82;;;;;;;13.36;52.84;94552.59;5057416;28;20029;-85
2023/08/08 03:33:43;;;;;;;1.83;0.80;;;;;;;13.34;52.79;94545.00;5057399;28;20083;-86
2023/08/08 03:36:08;;;;;;;0.95;0.60;;;;;;;13.23;53.39;94538.28;5040759;28;20033;-86
2023/08/08 03:38:37;;;;;;;1.48;0.70;;;;;;;13.29;52.50;94545.03;5057174;28;20041;-85
2023/08/08 03:41:03;;;;;;;1.75;0.80;;;;;;;12.93;52.65;94543.56;5057091;28;20506;-85
2023/08/08 03:43:29;;;;;;;1.42;0.80;;;;;;;12.67;52.67;94545.63;5057091;28;20065;-85
2023/08/08 03:45:54;;;;;;;1.10;0.70;;;;;;;12.95;53.25;94545.91;5057185;28;20101;-85
2023/08/08 03:48:20;;;;;;;1.00;0.70;;;;;;;12.90;51.78;94538.84;5058248;28;20040;-85
2023/08/08 03:50:46;;;;;;;1.63;0.70;;;;;;;12.90;51.07;94540.69;5056310;28;20044;-85
2023/08/08 03:53:12;;;;;;;0.68;0.60;;;;;;;12.76;51.84;94543.19;5058291;28;20025;-85
2023/08/08 03:55:37;;;;;;;1.33;0.60;;;;;;;12.73;52.53;94541.88;5058085;28;20043;-85
2023/08/08 03:58:03;;;;;;;1.35;0.70;;;;;;;12.70;50.65;94542.44;5057149;28;20149;-85
2023/08/08 04:00:28;;;;;;;1.38;0.70;;;;;;;12.88;53.35;94546.25;5037011;28;20427;-85
2023/08/08 04:02:54;;;;;;;1.13;0.70;;;;;;;12.92;53.11;94551.72;5039400;28;20407;-85
2023/08/08 04:05:19;;;;;;;1.50;0.90;;;;;;;12.85;51.00;94552.06;5054379;28;20030;-85
2023/08/08 04:07:45;;;;;;;0.75;0.60;;;;;;;13.00;51.66;94556.38;5058751;28;20044;-84
2023/08/08 04:13:13;;;;;;;1.63;0.90;;;;;;;12.75;52.34;94539.00;5042742;28;20339;-85
2023/08/08 04:15:38;;;;;;;1.50;0.77;;;;;;;12.64;52.00;94535.66;5075351;28;20063;-85
2023/08/08 04:18:06;;;;;;;0.88;0.57;;;;;;;12.48;52.24;94535.78;5077713;28;20033;-85
2023/08/08 04:20:50;;;;;;;1.30;0.70;;;;;;;12.71;51.67;94546.63;5077721;28;20024;-85
2023/08/08 04:25:59;;;;;;;1.02;0.60;;;;;;;13.00;51.37;94544.03;5078908;28;20341;-85
2023/08/08 04:28:44;;;;;;;1.27;0.75;;;;;;;12.99;50.38;94552.19;5077637;28;20028;-85
2023/08/08 04:33:58;;;;;;;1.45;0.77;;;;;;;13.11;50.99;94557.06;5077744;28;20032;-85
2023/08/08 04:36:23;;;;;;;1.20;0.70;;;;;;;13.13;50.49;94562.84;5077107;28;20085;-85
2023/08/08 04:38:49;;;;;;;2.05;0.90;;;;;;;13.25;50.85;94560.59;5078369;28;20396;-85
2023/08/08 04:41:14;;;;;;;3.45;0.98;;;;;;;13.34;52.48;94549.47;5077230;28;20043;-85
2023/08/08 04:44:04;;;;;;;1.38;0.90;;;;;;;13.33;51.82;94556.56;5077506;28;20032;-85
2023/08/08 04:46:48;;;;;;;1.25;0.77;;;;;;;13.31;51.30;94542.91;5037641;28;20064;-85
2023/08/08 04:49:13;;;;;;;1.77;0.95;;;;;;;13.39;51.69;94544.94;5037269;28;20025;-85
2023/08/08 04:51:39;;;;;;;3.17;0.73;;;;;;;13.28;53.39;94543.47;5038478;28;20029;-85
2023/08/08 04:54:04;;;;;;;1.00;0.70;;;;;;;13.09;55.96;94548.66;5020675;28;20025;-85
2023/08/08 04:56:49;;;;;;;1.35;0.80;;;;;;;13.04;57.54;94552.13;5036944;28;20036;-85
2023/08/08 04:59:33;;;;;;;1.13;0.68;;;;;;;13.16;56.15;94551.75;5038142;28;20338;-85
2023/08/08 05:01:58;;;;;;;1.75;0.70;;;;;;;13.27;55.52;94541.91;5036858;28;20034;-85
2023/08/08 05:04:24;;;;;;;5.57;0.80;;;;;;;13.24;57.74;94545.09;5037383;28;20086;-85
2023/08/08 05:06:49;;;;;;;2.13;0.80;;;;;;;13.38;58.91;94543.38;5038258;28;20351;-85
2023/08/08 05:09:33;;;;;;;1.58;0.80;;;;;;;13.26;66.36;94543.75;5037729;28;20033;-86
2023/08/08 05:11:59;;;;;;;1.02;0.70;;;;;;;13.60;60.43;94549.22;5038210;28;20033;-86
2023/08/08 05:14:24;;;;;;;1.38;0.80;;;;;;;13.75;61.68;94556.13;5032912;28;20036;-86
2023/08/08 05:16:49;;;;;;;1.50;0.50;;;;;;;13.47;63.05;94562.00;5057903;28;20506;-86
2023/08/08 05:19:34;;;;;;;1.67;0.73;;;;;;;13.66;64.07;94556.78;5057112;28;20029;-86
2023/08/08 05:21:59;;;;;;;0.80;0.60;;;;;;;13.61;71.73;94551.56;5056662;28;20342;-85
2023/08/08 05:24:25;;;;;;;1.60;0.77;;;;;;;13.59;84.39;94558.94;5057964;28;20037;-86
2023/08/08 05:26:50;;;;;;;1.42;0.70;;;;;;;14.08;79.01;94558.91;5057866;28;20068;-86
2023/08/08 05:29:16;;;;;;;1.48;0.80;;;;;;;14.06;73.45;94553.91;5056306;28;20070;-86
2023/08/08 05:31:41;;;;;;;1.73;1.10;;;;;;;14.17;71.73;94556.41;5057753;28;20033;-86
2023/08/08 05:34:07;;;;;;;1.52;0.77;;;;;;;14.11;73.94;94553.81;5056559;28;20029;-86
2023/08/08 05:36:32;;;;;;;4.63;0.88;;;;;;;14.24;95.84;94556.81;5056253;28;20115;-86
2023/08/08 05:38:58;;;;;;;2.28;0.70;;;;;;;14.50;96.29;94549.34;5056470;28;20080;-86
2023/08/08 05:41:56;;;;;;;1.80;0.75;;;;;;;14.75;88.38;94550.00;5053506;28;20033;-88
2023/08/08 05:44:22;;;;;;;2.03;0.95;;;;;;;14.63;82.14;94545.16;5062333;28;20059;-87
2023/08/08 05:47:06;;;;;;;1.30;0.73;;;;;;;14.95;77.29;94548.13;5055111;28;20028;-88
2023/08/08 05:49:31;;;;;;;1.00;0.60;;;;;;;15.10;83.10;94561.06;5054422;28;20037;-88
2023/08/08 05:51:57;;;;;;;1.25;0.75;;;;;;;15.29;77.84;94559.41;5056568;28;20079;-88
2023/08/08 05:59:50;;;;;;;0.90;0.60;;;;;;;15.84;70.31;94558.63;5056897;28;20558;-88
2023/08/08 06:02:16;;;;;;;0.65;0.50;;;;;;;15.95;70.10;94575.06;5026682;28;20037;-88
2023/08/08 06:05:00;;;;;;;1.30;0.80;;;;;;;16.16;67.70;94575.41;5036121;28;20034;-88
2023/08/08 06:07:25;;;;;;;1.25;0.82;;;;;;;16.33;68.54;94574.81;5037241;28;20083;-88
2023/08/08 06:09:50;;;;;;;1.90;1.05;;;;;;;16.27;80.12;94581.25;5036175;28;20029;-88
2023/08/08 06:12:16;;;;;;;1.20;0.80;;;;;;;16.40;71.98;94588.38;5036126;28;20025;-88
2023/08/08 06:15:00;;;;;;;1.48;0.80;;;;;;;16.59;72.39;94584.00;5038956;28;20037;-88
2023/08/08 06:17:25;;;;;;;1.08;0.57;;;;;;;16.79;66.98;94585.41;5037151;28;20041;-88
2023/08/08 06:19:51;;;;;;;0.95;0.73;;;;;;;16.88;77.92;94585.47;5037283;28;20037;-88
2023/08/08 06:22:16;;;;;;;2.25;0.88;;;;;;;16.98;77.94;94590.50;5037311;28;20041;-88
2023/08/08 06:24:42;;;;;;;2.75;1.35;;;;;;;17.17;76.64;94597.50;5052774;28;20065;-88
2023/08/08 06:27:07;;;;;;;1.27;0.80;;;;;;;17.27;78.42;94594.59;5052390;28;20041;-88
2023/08/08 06:29:51;;;;;;;1.20;0.68;;;;;;;17.36;78.68;94589.34;5035613;28;20427;-88
2023/08/08 06:32:36;;;;;;;1.65;1.05;;;;;;;17.59;78.69;94592.69;5036907;28;20503;-87
2023/08/08 06:35:20;;;;;;;1.23;0.63;;;;;;;17.72;89.27;94596.34;5035807;28;20088;-87
2023/08/08 06:37:45;;;;;;;2.70;0.75;;;;;;;17.69;85.65;94590.88;5037157;28;20033;-87
2023/08/08 06:40:12;;;;;;;2.25;0.88;;;;;;;17.59;92.91;94598.00;5020633;28;20032;-87
2023/08/08 06:42:38;;;;;;;3.35;0.60;;;;;;;17.95;87.63;94597.03;5055727;28;20033;-86
2023/08/08 06:45:04;;;;;;;0.85;0.65;;;;;;;17.98;94.44;94602.81;5053649;28;20041;-86
2023/08/08 06:47:29;;;;;;;1.48;0.90;;;;;;;17.75;97.29;94601.03;5035862;28;20026;-87
2023/08/08 06:50:13;;;;;;;3.88;0.95;;;;;;;18.17;91.52;94605.22;5035311;28;20036;-86
2023/08/08 06:52:39;;;;;;;1.98;0.70;;;;;;;17.93;83.85;94599.22;5036742;28;20038;-86
2023/08/08 06:55:04;;;;;;;2.15;0.60;;;;;;;17.23;95.33;94601.59;5036621;28;20052;-87
2023/08/08 06:57:32;;;;;;;1.52;0.80;;;;;;;17.42;83.66;94604.00;5035992;28;20079;-87
2023/08/08 06:59:58;;;;;;;1.15;0.68;;;;;;;17.57;67.23;94613.44;5039197;28;20363;-88
2023/08/08 07:02:23;;;;;;;1.55;0.60;;;;;;;17.77;78.57;94604.16;5023038;28;20043;-86
2023/08/08 07:04:49;;;;;;;1.15;0.82;;;;;;;17.56;69.64;94611.06;5048001;28;20358;-86
2023/08/08 07:07:14;;;;;;;2.45;0.82;;;;;;;17.83;69.92;94607.44;5060541;28;20075;-87
2023/08/08 07:09:39;;;;;;;1.17;0.82;;;;;;;17.96;86.31;94616.34;5059124;28;20048;-87
2023/08/08 07:12:05;;;;;;;4.70;1.20;;;;;;;18.10;84.43;94616.28;5059371;28;20403;-86
2023/08/08 07:14:32;;;;;;;1.63;0.98;;;;;;;18.13;83.66;94607.69;5060101;28;20032;-87
2023/08/08 07:16:58;;;;;;;4.68;0.70;;;;;;;17.95;92.11;94614.78;5059513;28;20136;-86
2023/08/08 07:19:23;;;;;;;3.72;0.80;;;;;;;18.38;85.72;94613.38;5058701;28;20120;-86
2023/08/08 07:21:50;;;;;;;1.48;0.70;;;;;;;18.53;85.73;94612.09;5058787;28;20029;-87
2023/08/08 07:24:16;;;;;;;0.77;0.60;;;;;;;18.63;81.25;94613.66;5060303;28;20025;-87
2023/08/08 07:26:42;;;;;;;1.17;0.73;;;;;;;18.77;84.66;94616.94;5058886;28;20025;-88
2023/08/08 07:29:07;;;;;;;1.20;0.80;;;;;;;18.96;75.15;94607.88;5060029;28;20312;-87
2023/08/08 07:31:33;;;;;;;2.42;0.82;;;;;;;18.84;67.85;94610.41;5048475;28;20029;-83
2023/08/08 07:36:42;;;;;;;1.42;0.80;;;;;;;19.17;58.82;94615.22;5038765;28;20359;-90
2023/08/08 07:39:27;;;;;;;2.08;0.73;;;;;;;18.95;64.63;94614.28;5038312;28;20038;-84
2023/08/08 07:41:53;;;;;;;1.25;0.57;;;;;;;19.18;59.19;94611.47;5038734;28;20038;-89
2023/08/08 07:44:38;;;;;;;1.52;0.90;;;;;;;19.29;64.27;94619.88;5038912;28;20029;-88
2023/08/08 07:47:04;;;;;;;0.93;0.63;;;;;;;19.42;80.22;94620.78;5038211;28;20045;-88
2023/08/08 07:49:30;;;;;;;1.15;0.90;;;;;;;19.48;68.99;94612.31;5021764;28;20030;-88
2023/08/08 07:51:55;;;;;;;1.10;0.80;;;;;;;19.58;68.42;94616.50;5038684;28;20033;-89
2023/08/08 07:57:04;;;;;;;2.25;0.90;;;;;;;19.72;71.80;94615.50;5038176;28;20351;-87
2023/08/08 07:59:30;;;;;;;1.23;0.90;;;;;;;19.80;75.85;94622.69;5038134;28;20033;-86
2023/08/08 08:01:56;;;;;;;1.25;0.77;;;;;;;19.88;79.56;94619.19;5039240;28;20112;-86
2023/08/08 08:04:21;;;;;;;1.15;0.60;;;;;;;19.89;72.95;94615.44;5038369;28;20044;-87
2023/08/08 08:06:47;;;;;;;1.63;0.98;;;;;;;19.92;69.95;94614.81;5038345;28;20030;-87
2023/08/08 08:09:31;;;;;;;2.38;0.75;;;;;;;19.99;72.83;94614.31;5037161;28;20036;-88
2023/08/08 08:11:59;;;;;;;2.17;0.70;;;;;;;19.90;73.32;94622.31;5038107;28;20028;-90
2023/08/08 08:14:24;;;;;;;1.55;0.95;;;;;;;20.05;70.82;94620.22;5021395;28;20060;-90
2023/08/08 08:17:09;;;;;;;3.35;1.02;;;;;;;20.23;73.33;94617.47;5052157;28;20071;-87
2023/08/08 08:19:36;;;;;;;1.83;0.82;;;;;;;20.30;70.90;94617.75;5057827;28;20067;-88
2023/08/08 08:22:02;;;;;;;1.98;0.70;;;;;;;20.38;77.94;94618.78;5058078;28;20029;-87
2023/08/08 08:24:27;;;;;;;1.27;0.60;;;;;;;20.54;78.54;94621.66;5057740;28;20338;-91
2023/08/08 08:26:53;;;;;;;1.25;0.80;;;;;;;20.54;74.95;94626.97;5057333;28;20330;-88
2023/08/08 08:29:18;;;;;;;1.30;0.80;;;;;;;20.73;72.93;94616.66;5057718;28;20043;-87
2023/08/08 08:31:46;;;;;;;1.88;0.88;;;;;;;20.80;79.02;94618.00;5058960;28;20033;-87
2023/08/08 08:34:30;;;;;;;1.67;0.90;;;;;;;20.83;75.99;94609.41;5041174;28;20044;-87
2023/08/08 08:37:14;;;;;;;2.95;0.73;;;;;;;20.96;72.96;94612.88;5057409;28;20036;-87
2023/08/08 08:39:40;;;;;;;5.22;0.98;;;;;;;20.96;66.44;94619.00;5058757;28;20409;-87
2023/08/08 08:45:29;;;;;;;4.68;2.65;;;;;;;21.10;65.54;94621.38;5001603;28;20078;-88
2023/08/08 08:47:59;;;;;;;6.47;4.18;;;;;;;21.22;69.06;94619.84;5058916;28;20033;-89
2023/08/08 08:50:27;;;;;;;2.63;0.80;;;;;;;21.21;62.92;94619.06;5057698;28;20056;-89
2023/08/08 08:52:55;;;;;;;1.63;0.80;;;;;;;21.24;65.51;94617.63;5057036;28;20060;-91
2023/08/08 08:55:23;;;;;;;1.63;0.90;;;;;;;21.37;71.92;94615.75;5057307;28;20425;-88
2023/08/08 08:58:27;;;;;;;5.18;1.00;;;;;;;21.45;75.67;94622.91;5041124;28;20427;-89
2023/08/08 09:00:53;;;;;;;3.30;0.75;;;;;;;21.68;65.07;94623.28;5056573;28;20040;-92
2023/08/08 09:03:37;;;;;;;1.02;0.80;;;;;;;21.70;72.93;94621.06;5056967;28;20033;-89
2023/08/08 09:06:04;;;;;;;1.58;0.90;;;;;;;21.82;62.88;94625.66;5074624;28;20029;-89
2023/08/08 09:08:50;;;;;;;2.35;1.10;;;;;;;21.72;62.25;94615.41;5076314;28;20031;-88
2023/08/08 09:11:16;;;;;;;2.53;0.90;;;;;;;21.78;63.37;94622.06;5057087;28;20027;-87
2023/08/08 09:14:02;;;;;;;2.65;0.85;;;;;;;21.94;59.19;94622.19;5058469;28;20426;-88
2023/08/08 09:16:27;;;;;;;2.90;1.05;;;;;;;22.00;60.23;94623.53;5058485;28;20033;-90
2023/08/08 09:18:53;;;;;;;6.15;0.90;;;;;;;22.03;55.46;94627.41;5057721;28;20043;-87
2023/08/08 09:21:18;;;;;;;1.58;0.80;;;;;;;22.03;58.63;94620.22;5056366;28;20029;-90
2023/08/08 09:23:44;;;;;;;1.80;0.88;;;;;;;22.14;53.25;94617.06;5056527;28;20044;-88
2023/08/08 09:26:10;;;;;;;4.45;1.42;;;;;;;22.12;53.67;94622.75;5057096;28;20055;-88
2023/08/08 09:28:35;;;;;;;2.58;0.80;;;;;;;22.32;49.50;94622.94;5056616;28;20039;-87
2023/08/08 09:31:00;;;;;;;1.73;1.00;;;;;;;22.40;51.34;94623.94;5056954;28;20045;-87
2023/08/08 09:33:30;;;;;;;1.48;0.85;;;;;;;22.37;51.71;94619.28;5040283;28;20075;-91
2023/08/08 09:35:55;;;;;;;1.55;1.00;;;;;;;22.39;47.84;94620.50;5054423;28;20049;-89
2023/08/08 09:38:20;;;;;;;1.02;0.70;;;;;;;22.38;46.53;94618.94;5046438;28;20041;-88
2023/08/08 09:40:46;;;;;;;2.05;0.82;;;;;;;22.28;45.61;94617.50;5056108;28;20029;-88
2023/08/08 09:45:55;;;;;;;0.95;0.65;;;;;;;22.56;46.93;94624.06;5056662;28;20082;-89
2023/08/08 09:48:21;;;;;;;1.13;0.80;;;;;;;22.53;47.36;94622.06;5056385;28;20024;-88
2023/08/08 09:51:06;;;;;;;1.60;1.05;;;;;;;22.39;45.01;94609.81;5056616;28;20063;-89
2023/08/08 09:53:32;;;;;;;1.40;0.70;;;;;;;22.63;48.62;94616.22;5057266;28;20056;-91
2023/08/08 09:55:57;;;;;;;1.90;0.98;;;;;;;22.71;48.64;94617.19;5055842;28;20044;-88
2023/08/08 09:58:23;;;;;;;1.33;0.90;;;;;;;22.78;45.52;94619.28;5056612;28;20476;-87
2023/08/08 10:03:34;;;;;;;1.88;0.80;;;;;;;22.87;47.23;94610.03;5055936;28;20063;-90
2023/08/08 10:06:03;;;;;;;3.08;1.10;;;;;;;22.95;42.98;94612.91;5056103;28;20039;-90
2023/08/08 10:08:30;;;;;;;1.08;0.80;;;;;;;22.95;44.02;94610.22;5055939;28;20032;-87
2023/08/08 10:11:17;;;;;;;1.20;0.77;;;;;;;23.05;48.97;94601.72;5056438;28;20040;-87
2023/08/08 10:13:50;;;;;;;3.50;1.02;;;;;;;23.05;47.77;94603.59;5057746;28;20025;-88
2023/08/08 10:16:17;;;;;;;1.65;0.85;;;;;;;23.15;50.54;94603.88;5066677;28;20081;-88
2023/08/08 10:19:05;;;;;;;3.78;0.90;;;;;;;23.02;42.09;94597.03;5059458;28;20115;-90
2023/08/08 10:22:02;;;;;;;1.60;0.98;;;;;;;22.96;44.99;94604.56;5051468;28;20111;-92
2023/08/08 10:24:51;;;;;;;1.45;0.90;;;;;;;22.85;49.64;94603.47;5055559;28;20155;-91
2023/08/08 10:27:36;;;;;;;3.40;1.02;;;;;;;22.89;46.72;94601.69;5055680;28;20035;-88
2023/08/08 10:30:07;;;;;;;1.80;0.75;;;;;;;22.97;44.89;94603.44;5055634;28;20419;-90
2023/08/08 10:32:50;;;;;;;1.83;1.00;;;;;;;22.81;49.59;94607.94;5054727;28;20104;-91
2023/08/08 10:35:34;;;;;;;2.65;1.00;;;;;;;22.96;47.66;94604.56;5055486;28;20039;-89
2023/08/08 10:38:23;;;;;;;5.55;2.92;;;;;;;22.95;43.42;94605.66;5056854;28;20036;-87
2023/08/08 10:40:55;;;;;;;1.95;1.15;;;;;;;23.04;45.75;94600.19;5054935;28;20346;-88
2023/08/08 10:43:27;;;;;;;1.33;0.80;;;;;;;22.83;45.95;94595.81;5055828;28;20127;-88
2023/08/08 10:46:15;;;;;;;2.05;0.70;;;;;;;22.89;44.86;94596.34;5039567;28;20437;-88
2023/08/08 10:52:04;;;;;;;3.03;1.08;;;;;;;23.20;45.21;94588.75;5030468;28;20036;-88
2023/08/08 10:54:32;;;;;;;0.73;0.65;;;;;;;23.40;44.54;94586.97;5056917;28;20041;-87
2023/08/08 10:57:01;;;;;;;4.18;0.63;;;;;;;23.61;47.74;94591.28;5055504;28;20032;-86
2023/08/08 10:59:35;;;;;;;1.13;0.73;;;;;;;23.65;44.13;94587.59;5055157;28;20029;-88
2023/08/08 11:02:01;;;;;;;1.83;1.00;;;;;;;23.85;45.15;94593.00;5056375;28;20032;-92
2023/08/08 11:04:30;;;;;;;2.00;0.90;;;;;;;23.68;41.56;94594.16;5055261;28;20046;-89
2023/08/08 11:07:15;;;;;;;1.17;0.85;;;;;;;23.73;42.50;94600.00;5054112;28;20118;-89
2023/08/08 11:09:40;;;;;;;1.63;0.82;;;;;;;23.84;42.87;94594.13;5051969;28;20033;-89
2023/08/08 11:12:26;;;;;;;0.63;0.52;;;;;;;23.55;41.90;94583.53;5019142;28;20018;-89
2023/08/08 11:14:52;;;;;;;3.65;0.85;;;;;;;23.63;44.62;94584.47;5035355;28;20056;-89
2023/08/08 11:17:19;;;;;;;0.70;0.50;;;;;;;23.75;46.84;94586.28;5035748;28;20029;-88
2023/08/08 11:23:13;;;;;;;1.77;0.75;;;;;;;24.06;45.59;94589.31;5036227;28;20505;-90
2023/08/08 11:25:43;;;;;;;4.00;0.80;;;;;;;23.72;46.28;94582.38;5035412;28;20025;-91
2023/08/08 11:28:29;;;;;;;2.92;1.00;;;;;;;23.91;45.01;94586.28;5035553;28;20454;-92
2023/08/08 11:30:56;;;;;;;2.85;0.75;;;;;;;23.97;45.62;94581.44;5043873;28;20031;-89
2023/08/08 11:33:25;;;;;;;1.25;0.88;;;;;;;23.84;44.62;94570.03;5039143;28;20033;-90
2023/08/08 11:36:09;;;;;;;1.40;0.68;;;;;;;23.63;44.11;94565.75;5038389;28;20035;-89
2023/08/08 11:38:44;;;;;;;1.45;0.77;;;;;;;23.81;43.76;94574.19;5038911;28;20029;-93
2023/08/08 11:41:13;;;;;;;1.10;0.70;;;;;;;23.76;43.42;94563.00;5054825;28;20036;-90
2023/08/08 11:43:41;;;;;;;3.60;0.93;;;;;;;24.11;42.77;94571.06;5038359;28;20082;-88
2023/08/08 11:46:12;;;;;;;1.23;0.82;;;;;;;24.04;45.36;94562.13;5059736;28;20120;-88
2023/08/08 11:48:41;;;;;;;1.52;0.75;;;;;;;23.83;44.10;94558.59;5059944;28;20037;-89
2023/08/08 11:51:08;;;;;;;3.00;0.90;;;;;;;23.78;44.68;94569.53;5059701;28;20028;-90
2023/08/08 11:53:34;;;;;;;1.40;1.00;;;;;;;23.99;46.69;94560.44;5058318;28;20120;-93
2023/08/08 11:56:21;;;;;;;0.98;0.60;;;;;;;24.09;46.44;94559.16;5058088;28;20048;-92
2023/08/08 11:59:00;;;;;;;3.50;1.27;;;;;;;24.20;42.66;94548.66;5058429;28;20029;-92
2023/08/08 12:01:44;;;;;;;1.30;0.80;;;;;;;24.31;44.50;94557.72;5042314;28;20047;-89
2023/08/08 12:04:10;;;;;;;1.63;0.80;;;;;;;24.59;44.56;94563.97;5052590;28;20464;-89
2023/08/08 12:06:45;;;;;;;2.33;1.35;;;;;;;24.84;44.21;94554.56;5059500;28;20032;-88
2023/08/08 12:09:14;;;;;;;3.63;0.90;;;;;;;24.84;43.31;94551.13;5042566;28;20031;-88
2023/08/08 12:11:50;;;;;;;0.95;0.70;;;;;;;24.42;43.04;94549.88;5041488;28;20123;-90
2023/08/08 12:14:18;;;;;;;2.20;0.88;;;;;;;23.70;43.64;94562.47;5058348;28;20033;-87
2023/08/08 12:16:43;;;;;;;2.33;1.00;;;;;;;23.94;47.08;94558.81;5059602;28;20516;-88
2023/08/08 12:19:10;;;;;;;1.13;0.80;;;;;;;23.98;47.82;94561.56;5058737;28;20040;-90
2023/08/08 12:21:36;;;;;;;1.92;0.85;;;;;;;24.09;48.58;94553.81;5061873;28;20039;-90
2023/08/08 12:24:06;;;;;;;1.40;0.80;;;;;;;24.20;51.09;94554.03;5077889;28;20033;-93
2023/08/08 12:26:32;;;;;;;3.72;1.00;;;;;;;24.36;49.74;94552.06;5061524;28;20016;-91
2023/08/08 12:28:58;;;;;;;1.50;0.90;;;;;;;24.54;49.61;94559.72;5077172;28;20377;-86
2023/08/08 12:31:23;;;;;;;3.65;0.70;;;;;;;24.44;52.76;94555.66;5078931;28;20063;-88
2023/08/08 12:33:49;;;;;;;2.65;0.82;;;;;;;24.94;48.95;94545.16;5077996;28;20032;-90
2023/08/08 12:36:33;;;;;;;2.17;0.68;;;;;;;25.04;47.73;94548.41;5060974;28;20031;-93
2023/08/08 12:39:17;;;;;;;1.40;0.75;;;;;;;24.86;45.74;94543.50;5077796;28;20040;-88
2023/08/08 12:41:43;;;;;;;1.95;0.90;;;;;;;25.04;44.57;94537.69;5077700;28;20058;-90
2023/08/08 12:44:27;;;;;;;1.38;0.88;;;;;;;24.49;45.97;94539.34;5077499;28;20434;-93
2023/08/08 12:46:53;;;;;;;1.50;0.80;;;;;;;24.51;46.45;94534.41;5077684;28;20112;-91